Time;durP1;ratioP1;P1;durP2;ratioP2;P2;SDS_P1;SDS_P2;PMS_P1;PMS_P2;Temp;Humidity;BMP_temperature;BMP_pressure;BME280_temperature;BME280_humidity;BME280_pressure;Samples;Min_cycle;Max_cycle;Signal;HPM_P1;HPM_P2
2023/02/15 05:32:00;;;;;;;;;98.00;86.25;;;;;;;;5235517;22;46188;-60
2023/02/15 05:34:25;;;;;;;;;114.00;94.50;;;;;;;;4998950;28;45359;-60
2023/02/15 05:36:50;;;;;;;;;105.00;92.75;;;;;;;;4998291;28;45449;-58
2023/02/15 05:39:15;;;;;;;;;106.25;97.25;;;;;;;;4998689;28;45443;-59
2023/02/15 05:41:40;;;;;;;;;105.50;89.00;;;;;;;;4998347;28;46193;-59
2023/02/15 05:44:05;;;;;;;;;98.00;86.50;;;;;;;;4999347;28;45410;-59
2023/02/15 05:46:31;;;;;;;;;97.00;86.50;;;;;;;;5000230;28;45385;-59
2023/02/15 05:48:56;;;;;;;;;106.75;88.25;;;;;;;;5006643;28;45280;-59
2023/02/15 05:51:21;;;;;;;;;117.50;95.75;;;;;;;;5001781;28;45477;-59
2023/02/15 05:53:46;;;;;;;;;102.50;93.50;;;;;;;;5008240;28;45544;-59
2023/02/15 05:56:12;;;;;;;;;95.75;80.50;;;;;;;;5003781;28;45410;-59
2023/02/15 05:58:41;;;;;;;;;113.75;90.50;;;;;;;;5009544;28;45486;-59
2023/02/15 06:01:12;;;;;;;;;80.50;59.25;;;;;;;;5005730;28;46373;-59
2023/02/15 06:03:37;;;;;;;;;92.00;86.50;;;;;;;;5010127;28;45462;-59
2023/02/15 06:06:04;;;;;;;;;105.75;91.50;;;;;;;;4999181;28;45301;-59
2023/02/15 06:08:29;;;;;;;;;103.25;91.25;;;;;;;;4996907;28;45531;-59
2023/02/15 06:10:54;;;;;;;;;96.00;86.00;;;;;;;;5001192;28;46212;-59
2023/02/15 06:13:19;;;;;;;;;102.25;90.50;;;;;;;;5008688;28;45416;-59
2023/02/15 06:15:45;;;;;;;;;100.50;92.25;;;;;;;;5009364;28;45308;-59
2023/02/15 06:18:10;;;;;;;;;98.00;88.00;;;;;;;;5002085;28;45367;-59
2023/02/15 06:20:35;;;;;;;;;91.50;78.00;;;;;;;;5008269;28;46335;-59
2023/02/15 06:23:00;;;;;;;;;95.75;83.50;;;;;;;;4999354;28;45249;-60
2023/02/15 06:25:26;;;;;;;;;100.75;78.25;;;;;;;;4997360;28;45606;-59
2023/02/15 06:27:51;;;;;;;;;102.75;84.00;;;;;;;;5004813;28;45484;-59
2023/02/15 06:30:16;;;;;;;;;95.25;88.50;;;;;;;;4999687;28;46017;-59
2023/02/15 06:32:41;;;;;;;;;92.00;82.25;;;;;;;;4999255;28;45426;-58
2023/02/15 06:35:07;;;;;;;;;88.75;72.75;;;;;;;;4997775;28;45704;-59
2023/02/15 06:37:32;;;;;;;;;92.75;84.25;;;;;;;;4991656;28;45574;-59
2023/02/15 06:39:57;;;;;;;;;103.75;85.00;;;;;;;;4994716;28;45686;-62
2023/02/15 06:42:23;;;;;;;;;92.50;79.25;;;;;;;;5000705;28;45564;-62
2023/02/15 06:44:48;;;;;;;;;100.00;89.25;;;;;;;;4997235;28;45502;-60
2023/02/15 06:47:13;;;;;;;;;101.00;87.25;;;;;;;;4999311;28;45514;-60
2023/02/15 06:49:38;;;;;;;;;101.50;88.75;;;;;;;;4996881;28;45478;-60
2023/02/15 06:52:04;;;;;;;;;103.50;85.25;;;;;;;;4998409;28;45619;-60
2023/02/15 06:54:29;;;;;;;;;92.00;83.25;;;;;;;;4997876;28;45455;-59
2023/02/15 06:56:55;;;;;;;;;91.50;77.50;;;;;;;;4998352;28;45380;-59
2023/02/15 06:59:20;;;;;;;;;89.75;73.50;;;;;;;;4998672;28;46177;-59
2023/02/15 07:01:46;;;;;;;;;99.50;85.25;;;;;;;;5003678;28;45817;-58
2023/02/15 07:04:11;;;;;;;;;93.75;81.50;;;;;;;;4999449;28;45495;-59
2023/02/15 07:06:36;;;;;;;;;111.50;88.50;;;;;;;;4998172;28;45404;-59
2023/02/15 07:09:01;;;;;;;;;89.00;78.25;;;;;;;;4999706;28;46300;-59
2023/02/15 07:14:11;;;;;;;;;106.00;86.00;;;;;;;;5005319;28;45409;-59
2023/02/15 07:16:36;;;;;;;;;101.75;84.00;;;;;;;;4996738;28;45747;-59
2023/02/15 07:19:01;;;;;;;;;102.25;88.25;;;;;;;;4990025;28;45487;-59
2023/02/15 07:21:27;;;;;;;;;107.25;89.25;;;;;;;;4997209;28;45464;-60
2023/02/15 07:23:52;;;;;;;;;107.75;85.75;;;;;;;;4994967;28;45366;-60
2023/02/15 07:26:17;;;;;;;;;101.00;86.25;;;;;;;;4993169;28;45600;-60
2023/02/15 07:28:43;;;;;;;;;107.75;92.50;;;;;;;;4990120;28;46031;-60
2023/02/15 07:31:08;;;;;;;;;101.25;87.50;;;;;;;;4998970;28;45626;-62
2023/02/15 07:33:33;;;;;;;;;106.00;94.50;;;;;;;;4999730;28;45694;-60
2023/02/15 07:36:01;;;;;;;;;111.00;91.50;;;;;;;;5000787;28;45698;-60
2023/02/15 07:38:27;;;;;;;;;103.25;92.25;;;;;;;;5001396;28;46061;-59
2023/02/15 07:40:57;;;;;;;;;104.00;86.25;;;;;;;;5001183;28;45353;-60
2023/02/15 07:43:22;;;;;;;;;99.00;84.00;;;;;;;;4994295;28;45424;-60
2023/02/15 07:45:47;;;;;;;;;97.00;85.25;;;;;;;;5000615;28;45245;-60
2023/02/15 07:48:13;;;;;;;;;103.00;90.00;;;;;;;;5001207;28;45408;-59
2023/02/15 07:50:38;;;;;;;;;119.00;87.25;;;;;;;;5003495;28;45561;-60
2023/02/15 07:53:03;;;;;;;;;97.00;85.50;;;;;;;;4995321;28;45386;-60
2023/02/15 07:55:29;;;;;;;;;103.25;89.25;;;;;;;;5001566;28;45381;-60
2023/02/15 07:57:54;;;;;;;;;116.25;88.25;;;;;;;;5003970;28;45401;-60
2023/02/15 08:00:23;;;;;;;;;99.25;83.75;;;;;;;;5001135;28;45352;-60
2023/02/15 08:03:12;;;;;;;;;97.25;77.00;;;;;;;;5004816;28;45303;-60
2023/02/15 08:05:35;;;;;;;;;102.75;90.75;;;;;;;;5001047;28;45502;-60
2023/02/15 08:08:01;;;;;;;;;101.50;85.50;;;;;;;;5001304;28;46307;-60
2023/02/15 08:11:25;;;;;;;;;109.75;90.00;;;;;;;;5001409;28;45402;-60
2023/02/15 08:13:11;;;;;;;;;95.50;80.00;;;;;;;;4993279;28;45301;-60
2023/02/15 08:15:36;;;;;;;;;94.00;83.50;;;;;;;;5000914;28;45451;-60
2023/02/15 08:18:02;;;;;;;;;101.25;82.00;;;;;;;;5001135;28;45579;-60
2023/02/15 08:20:27;;;;;;;;;104.00;84.75;;;;;;;;5009687;28;45890;-60
2023/02/15 08:22:52;;;;;;;;;104.00;86.00;;;;;;;;5005148;28;45381;-59
2023/02/15 08:25:18;;;;;;;;;101.00;89.50;;;;;;;;4999708;28;45404;-59
2023/02/15 08:27:43;;;;;;;;;100.75;82.50;;;;;;;;5000070;28;45438;-59
2023/02/15 08:30:08;;;;;;;;;102.50;88.50;;;;;;;;5005443;28;45803;-60
2023/02/15 08:32:33;;;;;;;;;105.50;89.00;;;;;;;;5000222;28;45488;-59
2023/02/15 08:34:58;;;;;;;;;113.25;94.00;;;;;;;;5000872;28;45351;-59
2023/02/15 08:37:25;;;;;;;;;104.75;92.00;;;;;;;;5000328;28;46317;-59
2023/02/15 08:39:51;;;;;;;;;104.50;91.25;;;;;;;;4994089;28;45495;-60
2023/02/15 08:42:16;;;;;;;;;111.50;93.75;;;;;;;;5000204;28;46299;-59
2023/02/15 08:44:41;;;;;;;;;106.00;88.50;;;;;;;;5000491;28;45636;-59
2023/02/15 08:47:07;;;;;;;;;118.50;92.25;;;;;;;;4999860;28;45309;-59
2023/02/15 08:49:32;;;;;;;;;108.00;90.75;;;;;;;;5000387;28;45362;-59
2023/02/15 08:51:57;;;;;;;;;112.25;89.75;;;;;;;;4999291;28;45373;-59
2023/02/15 08:54:23;;;;;;;;;110.75;94.75;;;;;;;;5000782;28;45510;-59
2023/02/15 08:56:48;;;;;;;;;111.25;97.00;;;;;;;;4999457;28;45982;-59
2023/02/15 08:59:14;;;;;;;;;108.50;98.50;;;;;;;;5000058;28;45424;-59
2023/02/15 09:01:40;;;;;;;;;123.75;103.00;;;;;;;;5000325;28;45395;-59
2023/02/15 09:04:08;;;;;;;;;114.75;95.00;;;;;;;;4997352;28;45714;-59
2023/02/15 09:06:34;;;;;;;;;110.75;87.75;;;;;;;;4999805;28;46072;-59
2023/02/15 09:08:59;;;;;;;;;103.75;87.00;;;;;;;;4999866;28;45659;-59
2023/02/15 09:11:28;;;;;;;;;108.75;86.75;;;;;;;;5000399;28;45309;-60
2023/02/15 09:13:53;;;;;;;;;98.25;87.00;;;;;;;;4998422;28;45458;-60
2023/02/15 09:16:19;;;;;;;;;107.00;90.25;;;;;;;;4992823;28;46214;-60
2023/02/15 09:18:44;;;;;;;;;96.75;83.50;;;;;;;;4998707;28;45716;-59
2023/02/15 09:21:13;;;;;;;;;108.25;89.25;;;;;;;;5000452;28;45377;-59
2023/02/15 09:23:38;;;;;;;;;106.50;89.75;;;;;;;;4998698;28;45362;-60
2023/02/15 09:26:08;;;;;;;;;103.50;89.00;;;;;;;;5000349;28;45515;-59
2023/02/15 09:28:33;;;;;;;;;106.00;94.00;;;;;;;;4999850;28;45545;-59
2023/02/15 09:31:10;;;;;;;;;110.00;90.50;;;;;;;;4998581;28;45438;-59
2023/02/15 09:33:35;;;;;;;;;97.25;88.50;;;;;;;;4999389;28;45583;-59
2023/02/15 09:36:01;;;;;;;;;110.00;97.00;;;;;;;;4999762;28;45399;-59
2023/02/15 09:38:26;;;;;;;;;95.00;84.00;;;;;;;;4999797;28;45298;-60
2023/02/15 09:41:12;;;;;;;;;101.25;91.50;;;;;;;;4999656;28;45630;-59
2023/02/15 09:43:46;;;;;;;;;108.50;93.50;;;;;;;;4999490;28;45386;-59
2023/02/15 09:46:26;;;;;;;;;108.25;90.50;;;;;;;;4999361;28;45635;-58
2023/02/15 09:48:57;;;;;;;;;105.25;90.75;;;;;;;;4999106;28;45353;-60
2023/02/15 09:51:46;;;;;;;;;111.75;97.00;;;;;;;;4999952;28;45575;-60
2023/02/15 09:54:20;;;;;;;;;115.75;95.50;;;;;;;;4986780;28;46318;-60
2023/02/15 09:56:52;;;;;;;;;107.25;88.75;;;;;;;;4989044;28;46214;-60
2023/02/15 09:59:35;;;;;;;;;107.75;91.25;;;;;;;;4988100;28;45725;-60
2023/02/15 10:02:03;;;;;;;;;108.00;94.00;;;;;;;;4998926;28;45596;-60
2023/02/15 10:04:31;;;;;;;;;108.75;95.00;;;;;;;;4999267;28;45440;-60
2023/02/15 10:07:06;;;;;;;;;116.75;106.75;;;;;;;;4998598;28;45485;-60
2023/02/15 10:09:43;;;;;;;;;116.50;109.75;;;;;;;;4999068;28;45538;-60
2023/02/15 10:12:08;;;;;;;;;105.25;95.50;;;;;;;;4994298;28;45525;-60
2023/02/15 10:14:52;;;;;;;;;130.75;111.00;;;;;;;;4999952;28;45598;-60
2023/02/15 10:17:36;;;;;;;;;118.25;99.00;;;;;;;;5000510;28;46150;-60
2023/02/15 10:20:20;;;;;;;;;104.75;96.00;;;;;;;;5000898;28;45817;-60
2023/02/15 10:22:45;;;;;;;;;107.00;95.00;;;;;;;;4995627;28;45675;-60
2023/02/15 10:25:17;;;;;;;;;101.00;95.00;;;;;;;;4996824;28;45445;-60
2023/02/15 10:27:49;;;;;;;;;112.00;94.75;;;;;;;;4996601;28;46145;-60
2023/02/15 10:30:15;;;;;;;;;102.75;93.75;;;;;;;;4997831;28;45618;-60
2023/02/15 10:32:44;;;;;;;;;111.00;99.25;;;;;;;;4996252;28;45328;-60
2023/02/15 10:35:32;;;;;;;;;101.00;94.25;;;;;;;;4995535;28;46835;-60
2023/02/15 10:38:20;;;;;;;;;110.75;97.50;;;;;;;;4996961;28;45830;-60
2023/02/15 10:40:45;;;;;;;;;100.75;94.25;;;;;;;;4998760;28;45506;-60
2023/02/15 10:43:29;;;;;;;;;105.50;96.00;;;;;;;;4998638;28;45447;-60
2023/02/15 10:45:54;;;;;;;;;105.75;93.25;;;;;;;;4998177;28;46026;-60
2023/02/15 10:48:32;;;;;;;;;109.25;96.25;;;;;;;;4998012;28;46385;-60
2023/02/15 10:50:59;;;;;;;;;108.00;102.00;;;;;;;;4996531;28;45771;-60
2023/02/15 10:53:28;;;;;;;;;95.75;84.75;;;;;;;;5002340;28;45422;-60
2023/02/15 10:56:19;;;;;;;;;98.75;92.00;;;;;;;;4995750;28;45588;-61
2023/02/15 10:58:53;;;;;;;;;103.75;91.25;;;;;;;;4996202;28;46992;-59
2023/02/15 11:01:24;;;;;;;;;94.25;83.50;;;;;;;;4997550;28;45454;-60
2023/02/15 11:03:56;;;;;;;;;88.75;79.00;;;;;;;;4996648;28;45364;-59
2023/02/15 11:06:22;;;;;;;;;90.50;82.50;;;;;;;;4996787;28;45435;-59
2023/02/15 11:08:53;;;;;;;;;81.50;76.00;;;;;;;;5001715;28;46078;-59
2023/02/15 11:11:25;;;;;;;;;85.00;78.75;;;;;;;;4997656;28;45650;-59
2023/02/15 11:13:54;;;;;;;;;85.25;81.25;;;;;;;;4991489;28;45848;-60
2023/02/15 11:16:27;;;;;;;;;92.50;89.25;;;;;;;;5000039;28;45371;-60
2023/02/15 11:18:58;;;;;;;;;95.75;86.25;;;;;;;;4996175;28;45503;-60
2023/02/15 11:21:38;;;;;;;;;93.00;86.25;;;;;;;;4994805;28;45815;-60
2023/02/15 11:24:11;;;;;;;;;92.00;82.50;;;;;;;;4980878;28;45451;-60
2023/02/15 11:26:50;;;;;;;;;91.50;84.50;;;;;;;;4986861;28;46051;-60
2023/02/15 11:29:22;;;;;;;;;92.75;88.00;;;;;;;;4981080;28;47233;-60
2023/02/15 11:31:56;;;;;;;;;96.75;84.00;;;;;;;;4981788;28;45589;-60
2023/02/15 11:34:27;;;;;;;;;97.00;87.25;;;;;;;;4989497;28;45759;-60
2023/02/15 11:36:54;;;;;;;;;96.25;86.75;;;;;;;;4987294;28;46027;-60
2023/02/15 11:39:20;;;;;;;;;96.25;80.75;;;;;;;;4993040;28;45388;-60
2023/02/15 11:41:53;;;;;;;;;102.25;85.25;;;;;;;;4996115;28;45639;-60
2023/02/15 11:44:26;;;;;;;;;84.25;82.00;;;;;;;;4994613;28;45995;-60
2023/02/15 11:46:51;;;;;;;;;92.50;79.00;;;;;;;;4979828;28;47904;-60
2023/02/15 11:49:26;;;;;;;;;93.50;82.25;;;;;;;;4996019;28;45757;-60
2023/02/15 11:51:53;;;;;;;;;95.75;84.75;;;;;;;;5002018;28;45515;-60
2023/02/15 11:54:21;;;;;;;;;95.00;82.25;;;;;;;;4998768;28;45463;-60
2023/02/15 11:56:46;;;;;;;;;102.00;92.00;;;;;;;;5003361;28;45316;-60
2023/02/15 11:59:21;;;;;;;;;92.50;82.25;;;;;;;;4998043;28;45514;-60
2023/02/15 12:01:46;;;;;;;;;84.00;77.75;;;;;;;;4983748;28;45648;-60
2023/02/15 12:04:12;;;;;;;;;87.25;75.25;;;;;;;;4989802;28;45708;-60
2023/02/15 12:06:41;;;;;;;;;86.00;75.50;;;;;;;;4976495;28;45810;-59
2023/02/15 12:09:12;;;;;;;;;85.25;75.00;;;;;;;;4984694;28;46507;-59
2023/02/15 12:11:39;;;;;;;;;88.00;73.25;;;;;;;;4986903;28;46068;-59
2023/02/15 12:14:06;;;;;;;;;78.75;71.75;;;;;;;;4991562;28;45778;-59
2023/02/15 12:16:42;;;;;;;;;79.00;68.75;;;;;;;;4989751;28;45579;-58
2023/02/15 12:19:19;;;;;;;;;79.00;70.25;;;;;;;;4994886;28;46170;-58
2023/02/15 12:21:48;;;;;;;;;83.00;74.00;;;;;;;;4982597;28;45464;-59
2023/02/15 12:24:24;;;;;;;;;80.00;70.00;;;;;;;;4987190;28;47192;-59
2023/02/15 12:27:12;;;;;;;;;79.75;73.00;;;;;;;;4997526;28;45821;-59
2023/02/15 12:29:49;;;;;;;;;79.50;68.50;;;;;;;;4991770;28;45767;-59
2023/02/15 12:32:26;;;;;;;;;82.25;70.25;;;;;;;;4982621;28;45518;-59
2023/02/15 12:34:53;;;;;;;;;79.50;70.25;;;;;;;;4990646;28;45665;-59
2023/02/15 12:37:23;;;;;;;;;82.75;74.50;;;;;;;;4991274;28;45787;-59
2023/02/15 12:39:56;;;;;;;;;85.75;78.25;;;;;;;;4994533;28;45574;-59
2023/02/15 12:42:21;;;;;;;;;79.50;71.25;;;;;;;;4982077;28;47232;-59
2023/02/15 12:45:07;;;;;;;;;85.75;78.75;;;;;;;;4988138;28;45804;-59
2023/02/15 12:47:32;;;;;;;;;80.75;72.25;;;;;;;;4978032;28;46257;-59
2023/02/15 12:50:08;;;;;;;;;84.50;78.25;;;;;;;;4978763;28;45899;-59
2023/02/15 12:52:33;;;;;;;;;82.75;73.75;;;;;;;;4985019;28;45912;-59
2023/02/15 12:55:17;;;;;;;;;90.50;76.25;;;;;;;;4988908;28;45678;-59
2023/02/15 12:57:45;;;;;;;;;78.75;73.75;;;;;;;;4982069;28;45770;-58
2023/02/15 13:00:20;;;;;;;;;80.25;68.00;;;;;;;;4985345;28;46334;-58
2023/02/15 13:02:54;;;;;;;;;77.50;67.25;;;;;;;;4987236;28;47326;-58
2023/02/15 13:05:25;;;;;;;;;78.00;65.75;;;;;;;;4984885;28;46046;-58
2023/02/15 13:07:53;;;;;;;;;79.75;66.25;;;;;;;;4990955;28;45898;-59
2023/02/15 13:10:22;;;;;;;;;72.00;61.75;;;;;;;;4996306;28;46753;-59
2023/02/15 13:12:47;;;;;;;;;75.50;62.25;;;;;;;;4994112;28;45846;-60
2023/02/15 13:15:24;;;;;;;;;76.75;64.75;;;;;;;;4993522;28;45826;-58
2023/02/15 13:17:49;;;;;;;;;75.75;59.50;;;;;;;;4990050;28;45522;-62
2023/02/15 13:20:18;;;;;;;;;78.00;69.75;;;;;;;;4989151;28;48400;-59
2023/02/15 13:22:45;;;;;;;;;72.25;55.75;;;;;;;;4991387;28;45548;-59
2023/02/15 13:25:21;;;;;;;;;74.75;59.25;;;;;;;;4992149;28;45388;-60
2023/02/15 13:27:50;;;;;;;;;79.75;71.75;;;;;;;;4993445;28;45662;-61
2023/02/15 13:30:27;;;;;;;;;117.50;98.75;;;;;;;;4990319;28;46345;-60
2023/02/15 13:32:55;;;;;;;;;100.25;92.25;;;;;;;;4990581;28;45650;-60
2023/02/15 13:35:21;;;;;;;;;100.50;92.75;;;;;;;;4994716;28;45912;-60
2023/02/15 13:37:59;;;;;;;;;120.25;105.50;;;;;;;;4993230;28;45469;-60
2023/02/15 13:40:24;;;;;;;;;113.75;103.25;;;;;;;;4987418;28;47105;-60
2023/02/15 13:42:53;;;;;;;;;117.75;103.75;;;;;;;;4990422;28;47845;-60
2023/02/15 13:45:30;;;;;;;;;108.00;93.50;;;;;;;;4992509;28;46151;-61
2023/02/15 13:48:14;;;;;;;;;104.50;96.25;;;;;;;;4992965;28;45400;-60
2023/02/15 13:50:45;;;;;;;;;111.50;97.75;;;;;;;;4993832;28;47009;-60
2023/02/15 13:53:34;;;;;;;;;105.25;93.00;;;;;;;;4991841;28;45586;-60
2023/02/15 13:55:59;;;;;;;;;91.50;88.50;;;;;;;;4967390;28;45906;-60
2023/02/15 13:58:24;;;;;;;;;104.25;92.75;;;;;;;;4991096;28;45637;-60
2023/02/15 14:00:49;;;;;;;;;104.00;96.50;;;;;;;;4991956;28;46341;-60
2023/02/15 14:03:33;;;;;;;;;100.75;86.50;;;;;;;;4989849;28;45703;-62
2023/02/15 14:06:33;;;;;;;;;95.00;86.25;;;;;;;;4992619;28;45739;-63
2023/02/15 14:09:06;;;;;;;;;103.75;89.25;;;;;;;;4971816;28;46738;-63
2023/02/15 14:11:50;;;;;;;;;98.75;88.00;;;;;;;;4991498;28;45513;-61
2023/02/15 14:14:21;;;;;;;;;83.00;78.75;;;;;;;;4991032;28;45595;-61
2023/02/15 14:17:05;;;;;;;;;101.50;84.25;;;;;;;;4998051;28;47939;-60
2023/02/15 14:19:49;;;;;;;;;97.50;88.00;;;;;;;;4993208;28;46086;-61
2023/02/15 14:22:19;;;;;;;;;89.25;80.25;;;;;;;;4994307;28;47010;-61
2023/02/15 14:24:51;;;;;;;;;90.75;86.00;;;;;;;;4994704;28;45622;-61
2023/02/15 14:27:26;;;;;;;;;93.25;82.25;;;;;;;;4999912;28;45749;-61
2023/02/15 14:29:57;;;;;;;;;90.25;81.75;;;;;;;;4994546;28;45607;-61
2023/02/15 14:32:29;;;;;;;;;88.50;80.25;;;;;;;;4996782;28;45510;-61
2023/02/15 14:35:02;;;;;;;;;87.50;79.50;;;;;;;;4995112;28;45597;-61
2023/02/15 14:37:38;;;;;;;;;93.00;84.00;;;;;;;;4997550;28;45429;-62
2023/02/15 14:42:58;;;;;;;;;89.00;78.50;;;;;;;;4997735;28;45908;-61
2023/02/15 14:45:42;;;;;;;;;93.75;80.75;;;;;;;;4999007;28;45490;-62
2023/02/15 14:48:10;;;;;;;;;85.50;75.75;;;;;;;;4997590;28;45983;-61
2023/02/15 14:50:37;;;;;;;;;88.50;78.00;;;;;;;;5001757;28;46558;-61
2023/02/15 14:53:21;;;;;;;;;92.25;86.25;;;;;;;;4994656;28;47289;-61
2023/02/15 14:55:46;;;;;;;;;91.25;85.25;;;;;;;;4994890;28;45482;-61
2023/02/15 14:58:13;;;;;;;;;92.00;79.00;;;;;;;;4998503;28;45360;-61
2023/02/15 15:00:39;;;;;;;;;85.50;76.00;;;;;;;;4991597;28;45872;-64
2023/02/15 15:03:20;;;;;;;;;85.25;74.00;;;;;;;;4994031;28;45336;-61
2023/02/15 15:05:48;;;;;;;;;82.75;72.75;;;;;;;;4992170;28;45478;-60
2023/02/15 15:08:26;;;;;;;;;91.00;79.25;;;;;;;;4994636;28;46971;-62
2023/02/15 15:10:51;;;;;;;;;92.50;82.25;;;;;;;;5000987;28;45409;-61
2023/02/15 15:13:32;;;;;;;;;85.00;79.00;;;;;;;;4994597;28;45638;-60
2023/02/15 15:16:16;;;;;;;;;90.50;80.00;;;;;;;;4996456;28;45537;-61
2023/02/15 15:18:44;;;;;;;;;92.50;87.25;;;;;;;;4997840;28;45530;-60
2023/02/15 15:21:09;;;;;;;;;89.25;79.50;;;;;;;;4997060;28;45384;-60
2023/02/15 15:23:39;;;;;;;;;86.50;73.75;;;;;;;;4995717;28;45910;-59
2023/02/15 15:26:24;;;;;;;;;86.50;80.00;;;;;;;;4993305;28;45662;-60
2023/02/15 15:28:50;;;;;;;;;91.50;79.50;;;;;;;;4997606;28;45549;-59
2023/02/15 15:31:15;;;;;;;;;87.75;80.25;;;;;;;;4991169;28;45576;-59
2023/02/15 15:34:00;;;;;;;;;87.50;75.25;;;;;;;;4993391;28;45475;-59
2023/02/15 15:36:34;;;;;;;;;88.50;77.25;;;;;;;;4996459;28;45309;-59
2023/02/15 15:38:59;;;;;;;;;86.25;79.50;;;;;;;;4993772;28;45942;-59
2023/02/15 15:41:37;;;;;;;;;84.25;74.25;;;;;;;;4996825;28;45482;-59
2023/02/15 15:44:11;;;;;;;;;89.00;75.75;;;;;;;;4998210;28;46103;-58
2023/02/15 15:46:42;;;;;;;;;82.50;72.75;;;;;;;;4994074;28;45522;-59
2023/02/15 15:49:10;;;;;;;;;82.25;74.00;;;;;;;;4993629;28;45811;-59
2023/02/15 15:51:38;;;;;;;;;83.50;72.25;;;;;;;;4996857;28;45310;-59
2023/02/15 15:54:04;;;;;;;;;84.25;75.50;;;;;;;;4998316;28;46125;-59
2023/02/15 15:56:31;;;;;;;;;82.00;71.75;;;;;;;;5000912;28;45379;-59
2023/02/15 15:59:07;;;;;;;;;79.75;68.75;;;;;;;;4999055;28;45246;-59
2023/02/15 16:01:39;;;;;;;;;84.50;70.00;;;;;;;;4995147;28;45676;-59
2023/02/15 16:04:04;;;;;;;;;83.75;71.25;;;;;;;;4992176;28;45353;-60
2023/02/15 16:06:37;;;;;;;;;82.25;75.25;;;;;;;;5000522;28;45619;-59
2023/02/15 16:09:29;;;;;;;;;79.50;67.25;;;;;;;;4996017;28;45561;-59
2023/02/15 16:12:02;;;;;;;;;82.50;71.50;;;;;;;;4990979;28;45342;-59
2023/02/15 16:14:32;;;;;;;;;81.00;71.75;;;;;;;;4996797;28;47211;-60
2023/02/15 16:16:59;;;;;;;;;81.75;69.75;;;;;;;;4999918;28;45239;-60
2023/02/15 16:19:27;;;;;;;;;84.50;73.75;;;;;;;;5001162;28;45774;-60
2023/02/15 16:21:53;;;;;;;;;84.75;73.50;;;;;;;;4993775;28;45493;-60
2023/02/15 16:24:18;;;;;;;;;78.50;63.25;;;;;;;;4987362;28;45349;-60
2023/02/15 16:26:49;;;;;;;;;80.00;66.75;;;;;;;;4995880;28;45368;-60
2023/02/15 16:29:16;;;;;;;;;74.25;65.25;;;;;;;;4993076;28;45517;-60
2023/02/15 16:31:41;;;;;;;;;81.75;70.00;;;;;;;;4997780;28;45652;-60
2023/02/15 16:34:15;;;;;;;;;80.50;65.50;;;;;;;;5007438;28;46311;-60
2023/02/15 16:36:40;;;;;;;;;82.00;70.75;;;;;;;;4998028;28;45495;-60
2023/02/15 16:39:07;;;;;;;;;81.25;68.50;;;;;;;;5000661;28;45919;-59
2023/02/15 16:41:33;;;;;;;;;79.00;67.25;;;;;;;;4999832;28;45455;-59
2023/02/15 16:44:03;;;;;;;;;79.75;67.75;;;;;;;;4994933;28;46072;-59
2023/02/15 16:46:30;;;;;;;;;77.00;65.00;;;;;;;;5001136;28;46611;-59
2023/02/15 16:48:58;;;;;;;;;73.75;61.75;;;;;;;;4985410;28;45349;-59
2023/02/15 16:51:25;;;;;;;;;79.25;73.25;;;;;;;;4986162;28;45606;-59
2023/02/15 16:53:51;;;;;;;;;75.25;67.25;;;;;;;;4994739;28;45368;-59
2023/02/15 16:56:22;;;;;;;;;73.50;65.25;;;;;;;;4994985;28;45315;-59
2023/02/15 16:58:49;;;;;;;;;76.00;66.25;;;;;;;;4996904;28;45987;-59
2023/02/15 17:01:15;;;;;;;;;75.50;62.75;;;;;;;;5002797;28;45410;-60
2023/02/15 17:03:41;;;;;;;;;76.25;67.00;;;;;;;;4994956;28;46031;-59
2023/02/15 17:06:32;;;;;;;;;74.00;61.75;;;;;;;;4995890;28;45359;-59
2023/02/15 17:09:06;;;;;;;;;78.00;69.75;;;;;;;;4994061;28;45732;-61
2023/02/15 17:11:36;;;;;;;;;72.25;61.00;;;;;;;;4996131;28;45475;-56
2023/02/15 17:14:04;;;;;;;;;73.75;65.25;;;;;;;;4989350;28;45596;-55
2023/02/15 17:16:34;;;;;;;;;76.00;63.00;;;;;;;;5001193;28;45491;-55
2023/02/15 17:19:09;;;;;;;;;75.50;65.25;;;;;;;;4995945;28;45647;-55
2023/02/15 17:21:39;;;;;;;;;74.75;63.00;;;;;;;;4995308;28;45450;-56
2023/02/15 17:24:05;;;;;;;;;77.75;62.25;;;;;;;;4999787;28;45502;-58
2023/02/15 17:26:35;;;;;;;;;74.75;62.75;;;;;;;;4995591;28;45486;-58
2023/02/15 17:29:17;;;;;;;;;76.25;66.25;;;;;;;;5000650;28;45494;-56
2023/02/15 17:31:46;;;;;;;;;75.75;66.50;;;;;;;;4996167;28;46261;-57
2023/02/15 17:34:31;;;;;;;;;72.25;60.75;;;;;;;;4997132;28;45458;-55
2023/02/15 17:36:58;;;;;;;;;73.50;65.50;;;;;;;;4996451;28;45485;-57
2023/02/15 17:39:24;;;;;;;;;66.25;55.25;;;;;;;;4996622;28;45766;-56
2023/02/15 17:41:52;;;;;;;;;74.00;63.00;;;;;;;;5001313;28;45327;-58
2023/02/15 17:44:18;;;;;;;;;76.00;62.25;;;;;;;;4994522;28;46575;-58
2023/02/15 17:46:43;;;;;;;;;74.50;63.75;;;;;;;;4998482;28;45352;-57
2023/02/15 17:49:17;;;;;;;;;75.75;66.25;;;;;;;;4997451;28;45420;-57
2023/02/15 17:51:42;;;;;;;;;75.25;65.50;;;;;;;;4988947;28;45623;-56
2023/02/15 17:56:52;;;;;;;;;71.50;55.50;;;;;;;;4996557;28;45470;-56
2023/02/15 17:59:17;;;;;;;;;73.00;61.00;;;;;;;;4999059;28;45487;-57
2023/02/15 18:12:44;;;;;;;;;77.25;65.75;;;;;;;;5003794;28;45656;-57
2023/02/15 18:15:10;;;;;;;;;75.00;61.25;;;;;;;;4996687;28;46086;-56
2023/02/15 18:17:41;;;;;;;;;73.00;57.25;;;;;;;;4997970;28;45474;-56
2023/02/15 18:20:14;;;;;;;;;78.00;67.75;;;;;;;;4998142;28;45400;-56
2023/02/15 18:22:39;;;;;;;;;75.50;65.50;;;;;;;;4992885;28;45573;-56
2023/02/15 18:25:05;;;;;;;;;74.50;64.50;;;;;;;;4991126;28;46311;-55
2023/02/15 18:27:30;;;;;;;;;74.50;63.25;;;;;;;;4996659;28;45634;-55
2023/02/15 18:29:55;;;;;;;;;74.00;60.75;;;;;;;;4996034;28;45381;-56
2023/02/15 18:32:24;;;;;;;;;73.75;63.00;;;;;;;;4997877;28;45368;-56
2023/02/15 18:34:51;;;;;;;;;74.50;61.75;;;;;;;;4998390;28;46235;-56
2023/02/15 18:37:18;;;;;;;;;78.00;66.50;;;;;;;;4999038;28;45626;-56
2023/02/15 18:39:48;;;;;;;;;80.25;68.25;;;;;;;;4998124;28;45497;-56
2023/02/15 18:42:23;;;;;;;;;78.00;67.00;;;;;;;;5004757;28;45415;-55
2023/02/15 18:44:49;;;;;;;;;79.25;67.00;;;;;;;;4997950;28;46146;-56
2023/02/15 18:47:14;;;;;;;;;78.50;67.00;;;;;;;;4996099;28;45366;-58
2023/02/15 18:49:40;;;;;;;;;76.50;67.75;;;;;;;;4994555;28;45769;-56
2023/02/15 18:52:05;;;;;;;;;79.50;68.00;;;;;;;;5004133;28;45423;-55
2023/02/15 18:54:30;;;;;;;;;79.25;68.50;;;;;;;;5000635;28;46350;-57
2023/02/15 18:56:57;;;;;;;;;79.25;70.50;;;;;;;;4992551;28;45348;-58
2023/02/15 18:59:23;;;;;;;;;78.25;66.75;;;;;;;;4998310;28;45295;-57
2023/02/15 19:01:48;;;;;;;;;79.50;65.00;;;;;;;;4996246;28;45600;-56
2023/02/15 19:04:14;;;;;;;;;71.25;55.50;;;;;;;;4996847;28;46036;-57
2023/02/15 19:06:42;;;;;;;;;78.75;67.00;;;;;;;;4994466;28;45441;-57
2023/02/15 19:09:11;;;;;;;;;75.25;62.50;;;;;;;;5007577;28;45364;-56
2023/02/15 19:11:36;;;;;;;;;79.00;68.50;;;;;;;;4997767;28;45605;-55
2023/02/15 19:14:01;;;;;;;;;76.75;60.25;;;;;;;;4999518;28;45377;-57
2023/02/15 19:16:26;;;;;;;;;74.25;61.00;;;;;;;;4994892;28;45360;-57
2023/02/15 19:18:52;;;;;;;;;69.75;55.25;;;;;;;;4996178;28;45650;-57
2023/02/15 19:21:17;;;;;;;;;63.75;52.75;;;;;;;;4997106;28;45567;-57
2023/02/15 19:23:43;;;;;;;;;68.00;54.50;;;;;;;;4995181;28;46130;-58
2023/02/15 19:26:09;;;;;;;;;72.00;54.00;;;;;;;;4998753;28;45499;-58
2023/02/15 19:28:34;;;;;;;;;68.50;54.25;;;;;;;;4999424;28;45509;-59
2023/02/15 19:31:00;;;;;;;;;68.25;53.50;;;;;;;;5008746;28;45372;-59
2023/02/15 19:33:25;;;;;;;;;66.00;52.50;;;;;;;;5003979;28;46338;-58
2023/02/15 19:35:52;;;;;;;;;65.50;52.75;;;;;;;;4998039;28;45514;-58
2023/02/15 19:38:19;;;;;;;;;64.75;52.50;;;;;;;;4996287;28;46852;-59
2023/02/15 19:40:45;;;;;;;;;69.25;54.25;;;;;;;;5009686;28;45610;-61
2023/02/15 19:43:22;;;;;;;;;69.00;55.00;;;;;;;;4999842;28;46090;-61
2023/02/15 19:45:51;;;;;;;;;65.25;53.25;;;;;;;;4997389;28;45926;-60
2023/02/15 19:48:16;;;;;;;;;69.25;54.00;;;;;;;;4999147;28;45604;-61
2023/02/15 19:50:42;;;;;;;;;68.50;53.50;;;;;;;;4999363;28;45650;-61
2023/02/15 19:53:17;;;;;;;;;64.50;50.00;;;;;;;;4999862;28;46320;-61
2023/02/15 19:55:42;;;;;;;;;68.25;53.00;;;;;;;;4998351;28;45388;-62
2023/02/15 19:58:10;;;;;;;;;70.00;53.25;;;;;;;;5004008;28;45529;-62
2023/02/15 20:00:35;;;;;;;;;67.50;53.50;;;;;;;;4992680;28;45306;-61
2023/02/15 20:03:01;;;;;;;;;67.75;52.75;;;;;;;;4999267;28;46620;-60
2023/02/15 20:05:27;;;;;;;;;69.00;55.00;;;;;;;;5004077;28;45481;-59
2023/02/15 20:07:53;;;;;;;;;68.50;53.75;;;;;;;;5001738;28;45716;-59
2023/02/15 20:10:22;;;;;;;;;70.25;56.00;;;;;;;;4993051;28;45681;-60
2023/02/15 20:12:48;;;;;;;;;68.00;53.25;;;;;;;;4999612;28;45503;-59
2023/02/15 20:15:17;;;;;;;;;72.25;55.00;;;;;;;;4997575;28;45246;-59
2023/02/15 20:17:43;;;;;;;;;70.00;53.75;;;;;;;;4999835;28;45579;-59